SBI1048 UWSG-USSS
Flight info
| Callsign | SBI1048 |
|---|---|
| Flight time | N/A |
| Altitude | 37000 |
| Route | BEBNO1K BEBNO P135 LOMBI LOMBI6S |
| Aircraft | A320/M-SDE3FGHIRWY/LB1 |
Departure
| Time | N/A |
|---|---|
| Airport | Gagarin International Airport (UWSG) |
Arrival
| Time | 2026-04-27 18:32 |
|---|---|
| Airport | Koltsovo Airport (USSS) |
| Time | Latitude | Longitude | Altitude | Speed | Heading |
|---|---|---|---|---|---|
| 2026-04-27 17:52 | 54.82902 | 53.42852 | 36847 ft | 528 kts | 63° |
| 2026-04-27 17:52 | 54.85543 | 53.50038 | 36850 ft | 528 kts | 63° |
| 2026-04-27 17:52 | 54.88812 | 53.58973 | 36849 ft | 527 kts | 63° |
| 2026-04-27 17:53 | 54.93235 | 53.71686 | 36852 ft | 524 kts | 66° |
| 2026-04-27 17:53 | 54.96643 | 53.82849 | 36846 ft | 522 kts | 69° |
| 2026-04-27 17:54 | 54.99400 | 53.92187 | 36850 ft | 522 kts | 69° |
| 2026-04-27 17:54 | 55.02778 | 54.03397 | 36840 ft | 522 kts | 68° |
| 2026-04-27 17:55 | 55.06215 | 54.14550 | 36840 ft | 522 kts | 68° |
| 2026-04-27 17:55 | 55.09659 | 54.25728 | 36839 ft | 522 kts | 68° |
| 2026-04-27 17:56 | 55.13062 | 54.36936 | 36829 ft | 522 kts | 68° |
| 2026-04-27 17:56 | 55.16432 | 54.48176 | 36823 ft | 522 kts | 68° |
| 2026-04-27 17:57 | 55.19796 | 54.59428 | 36814 ft | 522 kts | 68° |
| 2026-04-27 17:57 | 55.23166 | 54.70690 | 36804 ft | 522 kts | 68° |
| 2026-04-27 17:58 | 55.26529 | 54.81964 | 36791 ft | 522 kts | 68° |
| 2026-04-27 17:58 | 55.29745 | 54.92817 | 36785 ft | 522 kts | 68° |
| 2026-04-27 17:59 | 55.33063 | 55.04056 | 36776 ft | 522 kts | 68° |
| 2026-04-27 17:59 | 55.36412 | 55.15479 | 36772 ft | 523 kts | 68° |
| 2026-04-27 18:00 | 55.39729 | 55.26866 | 36774 ft | 523 kts | 68° |
| 2026-04-27 18:00 | 55.43039 | 55.38269 | 36779 ft | 523 kts | 68° |
| 2026-04-27 18:01 | 55.46347 | 55.49689 | 36783 ft | 523 kts | 68° |
| 2026-04-27 18:01 | 55.49623 | 55.61055 | 36789 ft | 523 kts | 68° |
| 2026-04-27 18:02 | 55.52905 | 55.72510 | 36795 ft | 523 kts | 69° |
| 2026-04-27 18:02 | 55.56179 | 55.83992 | 36805 ft | 523 kts | 69° |
| 2026-04-27 18:03 | 55.59437 | 55.95481 | 36810 ft | 523 kts | 69° |
| 2026-04-27 18:03 | 55.62685 | 56.07008 | 36819 ft | 523 kts | 69° |
| 2026-04-27 18:04 | 55.65919 | 56.18535 | 36828 ft | 523 kts | 69° |
| 2026-04-27 18:04 | 55.69144 | 56.30073 | 36836 ft | 523 kts | 69° |
| 2026-04-27 18:05 | 55.72361 | 56.41627 | 36844 ft | 522 kts | 69° |
| 2026-04-27 18:05 | 55.75565 | 56.53203 | 36855 ft | 522 kts | 69° |
| 2026-04-27 18:06 | 55.78748 | 56.64798 | 36854 ft | 522 kts | 69° |
| 2026-04-27 18:06 | 55.81912 | 56.76409 | 36868 ft | 522 kts | 69° |
| 2026-04-27 18:07 | 55.85089 | 56.88026 | 36873 ft | 522 kts | 69° |
| 2026-04-27 18:07 | 55.88263 | 56.99651 | 36880 ft | 522 kts | 69° |
| 2026-04-27 18:08 | 55.91410 | 57.11294 | 36987 ft | 520 kts | 69° |
| 2026-04-27 18:08 | 55.92968 | 57.17088 | 37136 ft | 516 kts | 69° |
| 2026-04-27 18:08 | 55.94508 | 57.22846 | 37280 ft | 513 kts | 69° |
| 2026-04-27 18:09 | 55.96036 | 57.28583 | 37397 ft | 511 kts | 69° |
| 2026-04-27 18:09 | 55.97286 | 57.34467 | 37510 ft | 502 kts | 80° |
| 2026-04-27 18:09 | 55.98286 | 57.40428 | 37620 ft | 503 kts | 74° |
| 2026-04-27 18:09 | 55.99637 | 57.46216 | 37711 ft | 506 kts | 68° |
| 2026-04-27 18:10 | 56.03016 | 57.57438 | 37153 ft | 523 kts | 64° |
| 2026-04-27 18:10 | 56.04825 | 57.63133 | 36723 ft | 529 kts | 64° |
| 2026-04-27 18:10 | 56.06605 | 57.68783 | 36539 ft | 512 kts | 64° |
| 2026-04-27 18:11 | 56.08336 | 57.74248 | 36366 ft | 497 kts | 64° |
| 2026-04-27 18:11 | 56.10023 | 57.79556 | 36208 ft | 485 kts | 64° |
| 2026-04-27 18:11 | 56.11626 | 57.84823 | 35646 ft | 481 kts | 68° |
| 2026-04-27 18:11 | 56.13009 | 57.90345 | 33941 ft | 493 kts | 73° |
| 2026-04-27 18:12 | 56.14259 | 57.96138 | 32465 ft | 498 kts | 74° |
| 2026-04-27 18:12 | 56.15471 | 58.01901 | 31532 ft | 490 kts | 73° |
| 2026-04-27 18:12 | 56.16730 | 58.07540 | 30645 ft | 483 kts | 72° |
| 2026-04-27 18:12 | 56.18053 | 58.13024 | 29746 ft | 476 kts | 70° |
| 2026-04-27 18:13 | 56.19425 | 58.18384 | 28775 ft | 469 kts | 69° |
| 2026-04-27 18:13 | 56.20815 | 58.23637 | 27835 ft | 462 kts | 69° |
| 2026-04-27 18:13 | 56.22192 | 58.28793 | 26936 ft | 454 kts | 69° |
| 2026-04-27 18:13 | 56.23537 | 58.33880 | 26062 ft | 447 kts | 69° |
| 2026-04-27 18:14 | 56.24844 | 58.38909 | 25228 ft | 441 kts | 69° |
| 2026-04-27 18:14 | 56.26111 | 58.43882 | 24412 ft | 434 kts | 70° |
| 2026-04-27 18:14 | 56.27350 | 58.48795 | 23634 ft | 428 kts | 70° |
| 2026-04-27 18:14 | 56.28568 | 58.53642 | 22755 ft | 423 kts | 70° |
| 2026-04-27 18:15 | 56.29768 | 58.58435 | 21885 ft | 417 kts | 70° |
| 2026-04-27 18:15 | 56.30954 | 58.63162 | 21118 ft | 410 kts | 70° |
| 2026-04-27 18:15 | 56.32112 | 58.67757 | 20641 ft | 396 kts | 69° |
| 2026-04-27 18:15 | 56.33233 | 58.72192 | 20178 ft | 383 kts | 69° |
| 2026-04-27 18:16 | 56.34317 | 58.76494 | 19723 ft | 371 kts | 70° |
| 2026-04-27 18:16 | 56.35363 | 58.80672 | 19294 ft | 360 kts | 70° |
| 2026-04-27 18:16 | 56.36379 | 58.84736 | 18871 ft | 351 kts | 70° |
| 2026-04-27 18:16 | 56.37370 | 58.88713 | 18459 ft | 347 kts | 70° |
| 2026-04-27 18:17 | 56.38356 | 58.92694 | 18021 ft | 348 kts | 70° |
| 2026-04-27 18:17 | 56.39342 | 58.96691 | 17590 ft | 348 kts | 70° |
| 2026-04-27 18:17 | 56.40323 | 59.00676 | 17190 ft | 347 kts | 70° |
| 2026-04-27 18:17 | 56.41304 | 59.04657 | 16778 ft | 347 kts | 69° |
| 2026-04-27 18:18 | 56.42288 | 59.08644 | 16375 ft | 347 kts | 69° |
| 2026-04-27 18:18 | 56.43262 | 59.12630 | 15966 ft | 347 kts | 70° |
| 2026-04-27 18:18 | 56.44172 | 59.16666 | 15566 ft | 347 kts | 71° |
| 2026-04-27 18:18 | 56.45034 | 59.20732 | 15156 ft | 346 kts | 72° |
| 2026-04-27 18:19 | 56.45875 | 59.24820 | 14755 ft | 347 kts | 72° |
| 2026-04-27 18:19 | 56.46722 | 59.28956 | 14349 ft | 347 kts | 72° |
| 2026-04-27 18:19 | 56.47554 | 59.33005 | 13944 ft | 348 kts | 72° |
| 2026-04-27 18:19 | 56.48403 | 59.37110 | 13504 ft | 349 kts | 71° |
| 2026-04-27 18:20 | 56.50157 | 59.45512 | 12646 ft | 346 kts | 71° |
| 2026-04-27 18:20 | 56.51007 | 59.49572 | 12226 ft | 344 kts | 71° |
| 2026-04-27 18:20 | 56.51852 | 59.53616 | 11811 ft | 342 kts | 71° |
| 2026-04-27 18:21 | 56.52691 | 59.57637 | 11406 ft | 340 kts | 71° |
| 2026-04-27 18:21 | 56.53511 | 59.61585 | 11258 ft | 329 kts | 71° |
| 2026-04-27 18:21 | 56.54303 | 59.65412 | 11094 ft | 321 kts | 71° |
| 2026-04-27 18:21 | 56.55078 | 59.69171 | 10800 ft | 317 kts | 71° |
| 2026-04-27 18:22 | 56.55852 | 59.72893 | 10511 ft | 316 kts | 71° |
| 2026-04-27 18:22 | 56.56652 | 59.76597 | 10272 ft | 315 kts | 70° |
| 2026-04-27 18:22 | 56.57463 | 59.80280 | 10062 ft | 313 kts | 70° |
| 2026-04-27 18:22 | 56.58266 | 59.83906 | 9998 ft | 306 kts | 70° |
| 2026-04-27 18:23 | 56.59053 | 59.87479 | 10007 ft | 304 kts | 70° |
| 2026-04-27 18:23 | 56.59834 | 59.91046 | 10007 ft | 304 kts | 70° |
| 2026-04-27 18:23 | 56.60612 | 59.94609 | 9953 ft | 304 kts | 70° |
| 2026-04-27 18:23 | 56.61386 | 59.98158 | 9588 ft | 301 kts | 70° |
| 2026-04-27 18:24 | 56.62152 | 60.01685 | 9189 ft | 300 kts | 71° |
| 2026-04-27 18:24 | 56.62911 | 60.05202 | 8779 ft | 298 kts | 71° |
| 2026-04-27 18:24 | 56.63663 | 60.08709 | 8389 ft | 297 kts | 71° |
| 2026-04-27 18:24 | 56.64411 | 60.12190 | 7997 ft | 295 kts | 71° |
| 2026-04-27 18:25 | 56.65156 | 60.15666 | 7448 ft | 298 kts | 72° |
| 2026-04-27 18:25 | 56.65914 | 60.19221 | 6835 ft | 301 kts | 72° |
| 2026-04-27 18:25 | 56.66656 | 60.22684 | 6425 ft | 287 kts | 72° |
| 2026-04-27 18:25 | 56.67310 | 60.25722 | 6060 ft | 275 kts | 72° |
| 2026-04-27 18:26 | 56.67989 | 60.28879 | 5699 ft | 261 kts | 72° |
| 2026-04-27 18:26 | 56.68634 | 60.31886 | 5364 ft | 250 kts | 73° |
| 2026-04-27 18:26 | 56.69306 | 60.34748 | 5033 ft | 244 kts | 64° |
| 2026-04-27 18:26 | 56.70324 | 60.37182 | 4774 ft | 239 kts | 52° |
| 2026-04-27 18:27 | 56.71419 | 60.39448 | 4505 ft | 237 kts | 52° |
| 2026-04-27 18:27 | 56.72153 | 60.40979 | 4354 ft | 237 kts | 52° |
| 2026-04-27 18:27 | 56.73232 | 60.43235 | 4090 ft | 236 kts | 52° |
| 2026-04-27 18:27 | 56.74607 | 60.46184 | 3787 ft | 221 kts | 62° |
| 2026-04-27 18:28 | 56.75062 | 60.47772 | 3664 ft | 208 kts | 77° |
| 2026-04-27 18:28 | 56.75283 | 60.51048 | 3354 ft | 184 kts | 104° |
| 2026-04-27 18:28 | 56.75218 | 60.52561 | 3233 ft | 179 kts | 103° |
| 2026-04-27 18:28 | 56.75131 | 60.54787 | 3045 ft | 173 kts | 104° |
| 2026-04-27 18:29 | 56.75044 | 60.56969 | 2878 ft | 173 kts | 105° |
| 2026-04-27 18:29 | 56.74957 | 60.59133 | 2746 ft | 167 kts | 105° |
| 2026-04-27 18:29 | 56.74882 | 60.61143 | 2696 ft | 155 kts | 105° |
| 2026-04-27 18:29 | 56.74807 | 60.63076 | 2454 ft | 150 kts | 104° |
| 2026-04-27 18:30 | 56.74733 | 60.64954 | 2257 ft | 148 kts | 104° |
| 2026-04-27 18:30 | 56.74662 | 60.66810 | 2039 ft | 145 kts | 105° |
| 2026-04-27 18:30 | 56.74591 | 60.68628 | 1817 ft | 144 kts | 104° |
| 2026-04-27 18:30 | 56.74521 | 60.70431 | 1613 ft | 141 kts | 101° |
| 2026-04-27 18:31 | 56.74452 | 60.72219 | 1426 ft | 141 kts | 99° |
| 2026-04-27 18:31 | 56.74387 | 60.73992 | 1218 ft | 139 kts | 97° |
| 2026-04-27 18:31 | 56.74325 | 60.75746 | 1047 ft | 140 kts | 96° |
| 2026-04-27 18:31 | 56.74256 | 60.77502 | 871 ft | 139 kts | 96° |
| 2026-04-27 18:32 | 56.74182 | 60.79249 | 779 ft | 129 kts | 96° |
| 2026-04-27 18:32 | 56.74121 | 60.80679 | 771 ft | 97 kts | 94° |
| 2026-04-27 18:32 | 56.74083 | 60.81662 | 770 ft | 62 kts | 95° |
| 2026-04-27 18:32 | 56.74080 | 60.82094 | 767 ft | 21 kts | 65° |
| 2026-04-27 18:33 | 56.74176 | 60.82162 | 770 ft | 13 kts | 3° |
| 2026-04-27 18:33 | 56.74204 | 60.82165 | 771 ft | 0 kts | 4° |
| 2026-04-27 18:34 | 56.74344 | 60.82183 | 775 ft | 17 kts | 4° |
| 2026-04-27 18:34 | 56.74414 | 60.82190 | 777 ft | 0 kts | 3° |
| 2026-04-27 18:35 | 56.74562 | 60.82203 | 777 ft | 25 kts | 0° |
| 2026-04-27 18:35 | 56.74657 | 60.82101 | 775 ft | 15 kts | 280° |
| 2026-04-27 18:35 | 56.74659 | 60.81857 | 775 ft | 30 kts | 270° |
| 2026-04-27 18:36 | 56.74659 | 60.81466 | 774 ft | 31 kts | 270° |
| 2026-04-27 18:36 | 56.74659 | 60.81075 | 774 ft | 32 kts | 270° |
| 2026-04-27 18:36 | 56.74660 | 60.80663 | 773 ft | 32 kts | 270° |
| 2026-04-27 18:36 | 56.74661 | 60.80320 | 773 ft | 26 kts | 270° |
| 2026-04-27 18:37 | 56.74699 | 60.80139 | 772 ft | 13 kts | 341° |
| 2026-04-27 18:37 | 56.74765 | 60.80134 | 772 ft | 7 kts | 1° |
| 2026-04-27 18:37 | 56.74770 | 60.80134 | 772 ft | 0 kts | 1° |
| 2026-04-27 18:37 | 56.74823 | 60.80130 | 772 ft | 16 kts | 349° |
| 2026-04-27 18:38 | 56.74863 | 60.80057 | 772 ft | 2 kts | 307° |
| 2026-04-27 18:38 | 56.74909 | 60.80045 | 772 ft | 10 kts | 1° |
| 2026-04-27 18:38 | 56.74928 | 60.80045 | 772 ft | 1 kts | 360° |
| 2026-04-27 18:38 | 56.74929 | 60.80045 | 772 ft | 0 kts | 360° |